Time;durP1;ratioP1;P1;durP2;ratioP2;P2;SDS_P1;SDS_P2;PMS_P1;PMS_P2;Temp;Humidity;BMP_temperature;BMP_pressure;BME280_temperature;BME280_humidity;BME280_pressure;Samples;Min_cycle;Max_cycle;Signal;HPM_P1;HPM_P2
2022/08/28 00:00:29;;;;;;;8.55;3.80;;;19.00;78.50;;;;;;6278037;22;20050;-86
2022/08/28 00:02:59;;;;;;;9.15;3.60;;;18.80;78.70;;;;;;6253278;22;20003;-86
2022/08/28 00:05:31;;;;;;;9.55;4.55;;;18.80;79.00;;;;;;6278473;22;20002;-86
2022/08/28 00:07:58;;;;;;;7.72;3.65;;;18.80;79.10;;;;;;6278154;22;20449;-86
2022/08/28 00:10:27;;;;;;;11.73;3.72;;;18.70;79.30;;;;;;6252978;23;20000;-87
2022/08/28 00:12:56;;;;;;;7.53;3.50;;;18.70;80.00;;;;;;6228817;23;20016;-86
2022/08/28 00:15:33;;;;;;;9.07;3.50;;;18.60;79.40;;;;;;6260165;22;20000;-87
2022/08/28 00:18:00;;;;;;;9.95;4.00;;;18.60;79.60;;;;;;6271431;23;20032;-86
2022/08/28 00:20:28;;;;;;;8.27;3.42;;;18.60;79.80;;;;;;6273803;22;20004;-86
2022/08/28 00:22:54;;;;;;;5.90;2.80;;;18.50;80.00;;;;;;6272621;22;19995;-87
2022/08/28 00:25:23;;;;;;;8.93;3.13;;;18.40;80.20;;;;;;6271539;22;20014;-87
2022/08/28 00:27:51;;;;;;;8.13;3.15;;;18.40;80.20;;;;;;6289226;22;20008;-85
2022/08/28 00:30:47;;;;;;;10.15;3.10;;;18.50;80.30;;;;;;6276789;22;20418;-86
2022/08/28 00:33:29;;;;;;;7.53;3.42;;;18.50;80.40;;;;;;6223512;22;20008;-86
2022/08/28 00:35:56;;;;;;;5.90;3.55;;;18.50;80.30;;;;;;6279485;22;20007;-87
2022/08/28 00:38:25;;;;;;;7.18;2.90;;;18.40;80.40;;;;;;6278948;22;20091;-86
2022/08/28 00:41:04;;;;;;;7.10;2.65;;;18.50;80.50;;;;;;6254294;23;20036;-86
2022/08/28 00:43:43;;;;;;;6.25;2.80;;;18.40;80.50;;;;;;6254786;22;20418;-85
2022/08/28 00:46:14;;;;;;;6.68;2.92;;;18.30;80.80;;;;;;6278666;22;20004;-85
2022/08/28 00:48:48;;;;;;;;;;;18.30;80.80;;;;;;6280204;22;20004;-86
2022/08/28 00:54:02;;;;;;;6.95;2.80;;;18.30;81.10;;;;;;6254463;23;20035;-85
2022/08/28 00:56:30;;;;;;;5.45;2.97;;;18.30;81.10;;;;;;6255385;22;20423;-86
2022/08/28 00:59:08;;;;;;;7.38;2.55;;;18.20;81.10;;;;;;6252320;23;20004;-87
2022/08/28 01:01:39;;;;;;;9.02;3.28;;;18.30;81.30;;;;;;6279256;22;20008;-85
2022/08/28 01:04:08;;;;;;;7.28;3.08;;;18.20;81.30;;;;;;6277912;22;20010;-86
2022/08/28 01:06:35;;;;;;;8.13;3.33;;;18.20;81.50;;;;;;6253224;23;20001;-87
2022/08/28 01:09:02;;;;;;;5.65;2.63;;;18.20;81.60;;;;;;6278419;22;20004;-87
2022/08/28 01:11:30;;;;;;;7.95;3.42;;;18.10;81.70;;;;;;6254631;22;20000;-86
2022/08/28 01:14:01;;;;;;;6.57;2.90;;;18.10;81.70;;;;;;6252675;23;20000;-85
2022/08/28 01:16:29;;;;;;;5.25;2.60;;;18.10;81.70;;;;;;6253360;23;20326;-86
2022/08/28 01:19:00;;;;;;;5.57;2.65;;;18.10;81.90;;;;;;6278725;22;20326;-88
2022/08/28 01:21:31;;;;;;;7.18;3.65;;;18.10;82.00;;;;;;6279870;22;20000;-85
2022/08/28 01:24:08;;;;;;;6.38;3.10;;;18.10;82.00;;;;;;6253882;23;20003;-87
2022/08/28 01:26:41;;;;;;;7.35;2.75;;;18.10;82.10;;;;;;6278155;22;20000;-86
2022/08/28 01:29:21;;;;;;;6.72;2.80;;;18.10;82.10;;;;;;6253800;23;20004;-86
2022/08/28 01:31:47;;;;;;;5.47;2.60;;;18.10;82.10;;;;;;6231201;23;20015;-85
2022/08/28 01:34:13;;;;;;;6.38;2.92;;;18.10;82.70;;;;;;6279105;22;19985;-86
2022/08/28 01:36:42;;;;;;;6.68;2.70;;;18.10;82.10;;;;;;6278594;22;20050;-84
2022/08/28 01:39:13;;;;;;;5.32;2.75;;;18.10;82.10;;;;;;6278565;22;20031;-84
2022/08/28 01:41:42;;;;;;;6.53;3.15;;;18.10;82.10;;;;;;6279475;22;20010;-85
2022/08/28 01:44:08;;;;;;;7.80;2.90;;;18.20;82.10;;;;;;6252551;23;20054;-86
2022/08/28 01:46:34;;;;;;;5.57;2.35;;;18.10;82.10;;;;;;6252953;23;20086;-86
2022/08/28 01:49:00;;;;;;;6.85;2.40;;;18.10;82.00;;;;;;6279452;22;20008;-87
2022/08/28 01:51:28;;;;;;;6.32;2.70;;;18.10;82.10;;;;;;6279593;22;20091;-87
2022/08/28 01:53:58;;;;;;;6.50;2.65;;;18.10;82.00;;;;;;6279263;22;20007;-86
2022/08/28 01:56:24;;;;;;;;;;;18.20;82.00;;;;;;6280804;22;20000;-86
2022/08/28 01:58:54;;;;;;;7.00;3.13;;;18.20;82.00;;;;;;6252598;23;19887;-86
2022/08/28 02:01:21;;;;;;;6.68;3.05;;;18.20;82.00;;;;;;6279890;22;20001;-86
2022/08/28 02:03:51;;;;;;;6.40;2.05;;;18.20;82.00;;;;;;6254352;22;20099;-87
2022/08/28 02:06:17;;;;;;;5.38;2.65;;;18.20;82.00;;;;;;6281302;22;20039;-87
2022/08/28 02:08:43;;;;;;;8.13;3.20;;;18.20;82.10;;;;;;6257401;22;20008;-86
2022/08/28 02:11:11;;;;;;;7.68;2.42;;;18.10;82.20;;;;;;6285931;22;20001;-87
2022/08/28 02:13:38;;;;;;;5.07;2.50;;;18.10;82.40;;;;;;6298419;22;19980;-86
2022/08/28 02:16:08;;;;;;;7.03;2.50;;;18.00;82.40;;;;;;6274900;22;20002;-89
2022/08/28 02:18:37;;;;;;;6.35;2.80;;;18.00;82.50;;;;;;6274078;22;20015;-87
2022/08/28 02:21:04;;;;;;;7.47;2.55;;;18.00;82.60;;;;;;6272676;23;20019;-85
2022/08/28 02:23:30;;;;;;;6.80;3.28;;;18.00;82.60;;;;;;6261865;23;20079;-87
2022/08/28 02:25:55;;;;;;;5.35;2.42;;;18.00;82.70;;;;;;6278974;22;20023;-85
2022/08/28 02:28:24;;;;;;;5.93;2.55;;;18.00;82.80;;;;;;6228754;23;20008;-86
2022/08/28 02:30:53;;;;;;;5.88;2.33;;;17.90;83.00;;;;;;6253690;22;20014;-86
2022/08/28 02:33:18;;;;;;;5.85;2.78;;;17.90;83.10;;;;;;6254325;22;20027;-86
2022/08/28 02:35:44;;;;;;;4.70;2.40;;;17.80;83.10;;;;;;6228895;23;20004;-87
2022/08/28 02:38:10;;;;;;;7.03;3.10;;;17.80;83.20;;;;;;6278254;22;20008;-85
2022/08/28 02:40:40;;;;;;;6.00;2.63;;;17.80;83.40;;;;;;6253161;22;20008;-87
2022/08/28 02:43:08;;;;;;;6.07;2.63;;;17.70;83.40;;;;;;6254166;22;20008;-86
2022/08/28 02:45:34;;;;;;;9.65;3.15;;;17.70;83.40;;;;;;6253895;22;20004;-86
2022/08/28 02:48:03;;;;;;;6.05;2.65;;;17.80;83.50;;;;;;6278773;22;20054;-86
2022/08/28 02:50:31;;;;;;;5.95;2.58;;;17.80;83.30;;;;;;6279183;22;20422;-86
2022/08/28 02:52:59;;;;;;;5.43;2.42;;;17.70;83.50;;;;;;6255016;23;20048;-85
2022/08/28 02:55:26;;;;;;;5.25;2.58;;;17.70;83.70;;;;;;6278817;22;20001;-86
2022/08/28 02:57:53;;;;;;;4.90;2.20;;;17.60;83.70;;;;;;6279116;22;20004;-87
2022/08/28 03:00:22;;;;;;;5.38;2.35;;;17.70;83.80;;;;;;6279042;22;20326;-86
2022/08/28 03:02:51;;;;;;;4.43;2.05;;;17.70;83.70;;;;;;6254102;23;20444;-85
2022/08/28 03:05:19;;;;;;;5.82;1.95;;;17.70;83.80;;;;;;6278771;22;20050;-86
2022/08/28 03:07:49;;;;;;;7.07;2.70;;;17.70;83.70;;;;;;6278151;22;20092;-85
2022/08/28 03:10:15;;;;;;;5.15;2.58;;;17.70;83.70;;;;;;6254204;22;20012;-87
2022/08/28 03:12:41;;;;;;;5.55;2.30;;;17.70;84.40;;;;;;6279370;22;20015;-87
2022/08/28 03:15:08;;;;;;;6.25;2.90;;;17.70;83.80;;;;;;6279078;22;20422;-86
2022/08/28 03:17:43;;;;;;;7.05;2.97;;;17.70;83.80;;;;;;6279805;22;20000;-86
2022/08/28 03:20:11;;;;;;;4.90;2.20;;;17.70;83.80;;;;;;6255189;23;20004;-84
2022/08/28 03:25:24;;;;;;;5.50;2.42;;;17.70;84.00;;;;;;6254025;23;20107;-86
2022/08/28 03:27:51;;;;;;;4.93;2.33;;;17.70;84.00;;;;;;6252391;23;20004;-85
2022/08/28 03:30:20;;;;;;;8.75;2.70;;;17.60;84.00;;;;;;6253221;23;20059;-87
2022/08/28 03:32:48;;;;;;;4.95;2.30;;;17.60;84.10;;;;;;6252405;23;20000;-86
2022/08/28 03:35:19;;;;;;;5.50;2.55;;;17.60;84.10;;;;;;6252398;23;20089;-87
2022/08/28 03:37:46;;;;;;;4.53;2.35;;;17.60;84.30;;;;;;6252488;23;19996;-86
2022/08/28 03:40:13;;;;;;;6.82;2.70;;;17.50;84.30;;;;;;6227783;23;20323;-85
2022/08/28 03:42:39;;;;;;;7.95;2.90;;;17.50;84.20;;;;;;6202643;23;20004;-86
2022/08/28 03:45:12;;;;;;;6.55;2.50;;;17.50;84.30;;;;;;6227764;23;20065;-86
2022/08/28 03:47:40;;;;;;;5.13;2.60;;;17.50;84.40;;;;;;6254421;23;20003;-87
2022/08/28 03:50:10;;;;;;;4.55;2.30;;;17.50;84.70;;;;;;6251473;23;20058;-87
2022/08/28 03:52:37;;;;;;;6.95;2.60;;;17.40;84.60;;;;;;6227488;23;20000;-86
2022/08/28 03:55:07;;;;;;;6.22;2.70;;;17.40;84.60;;;;;;6251867;23;20438;-85
2022/08/28 03:57:34;;;;;;;5.80;2.90;;;17.40;84.70;;;;;;6252945;23;20004;-85
2022/08/28 04:00:00;;;;;;;5.95;2.67;;;17.40;84.70;;;;;;6230168;23;20016;-85
2022/08/28 04:02:29;;;;;;;7.47;2.60;;;17.40;84.80;;;;;;6259059;23;20004;-85
2022/08/28 04:04:58;;;;;;;5.75;2.70;;;17.30;84.80;;;;;;6254597;23;20004;-87
2022/08/28 04:07:24;;;;;;;5.75;2.50;;;17.30;85.00;;;;;;6221441;22;19985;-86
2022/08/28 04:09:50;;;;;;;6.65;2.72;;;17.20;85.10;;;;;;6222334;22;20014;-86
2022/08/28 04:12:16;;;;;;;5.72;2.40;;;17.20;85.10;;;;;;6248040;22;20052;-89
2022/08/28 04:14:49;;;;;;;6.72;2.70;;;17.20;85.20;;;;;;6247826;22;20000;-85
2022/08/28 04:17:15;;;;;;;10.27;2.63;;;17.10;85.40;;;;;;6253287;23;20034;-84
2022/08/28 04:19:43;;;;;;;5.07;2.40;;;17.10;85.50;;;;;;6227572;23;20008;-87
2022/08/28 04:22:11;;;;;;;6.72;2.70;;;17.10;85.50;;;;;;6229018;23;20012;-86
2022/08/28 04:24:40;;;;;;;6.00;2.35;;;17.20;85.50;;;;;;6226883;23;20052;-86
2022/08/28 04:27:08;;;;;;;8.00;2.70;;;17.10;85.40;;;;;;6255540;23;20048;-87
2022/08/28 04:29:33;;;;;;;5.68;2.60;;;17.20;85.60;;;;;;6202691;23;20072;-86
2022/08/28 04:31:59;;;;;;;5.65;2.60;;;17.10;85.50;;;;;;6253249;23;20000;-87
2022/08/28 04:34:28;;;;;;;7.35;2.80;;;17.20;86.10;;;;;;6202426;23;20022;-87
2022/08/28 04:36:56;;;;;;;5.43;2.40;;;17.10;85.50;;;;;;6253107;23;20001;-86
2022/08/28 04:39:24;;;;;;;5.25;2.08;;;17.10;85.60;;;;;;6227766;23;20008;-87
2022/08/28 04:41:57;;;;;;;5.28;2.17;;;17.10;85.60;;;;;;6251377;23;20004;-87
2022/08/28 04:44:23;;;;;;;4.72;2.22;;;17.10;85.70;;;;;;6252633;23;20008;-86
2022/08/28 04:46:48;;;;;;;5.65;2.42;;;17.10;85.70;;;;;;6227856;23;20004;-85
2022/08/28 04:49:19;;;;;;;7.05;2.70;;;17.00;85.70;;;;;;6252680;23;20010;-88
2022/08/28 04:51:45;;;;;;;6.10;2.30;;;17.00;85.90;;;;;;6227541;23;20015;-87
2022/08/28 04:54:13;;;;;;;4.53;2.08;;;17.00;86.00;;;;;;6227405;23;20065;-88
2022/08/28 04:56:42;;;;;;;7.82;2.65;;;16.90;86.20;;;;;;6228090;23;20003;-86
2022/08/28 04:59:12;;;;;;;5.45;2.65;;;16.90;86.40;;;;;;6202758;23;20401;-87
2022/08/28 05:01:41;;;;;;;5.32;2.70;;;16.90;86.60;;;;;;6203059;23;20028;-86
2022/08/28 05:04:10;;;;;;;4.80;2.47;;;16.90;86.60;;;;;;6251435;23;20000;-86
2022/08/28 05:06:44;;;;;;;8.68;3.10;;;16.90;86.60;;;;;;6252629;23;20004;-86
2022/08/28 05:09:15;;;;;;;7.68;2.60;;;16.90;86.60;;;;;;6253888;23;20162;-87
2022/08/28 05:11:47;;;;;;;6.30;2.83;;;16.90;86.70;;;;;;6253911;23;20064;-86
2022/08/28 05:14:22;;;;;;;6.88;2.42;;;17.00;86.70;;;;;;6203557;23;20067;-85
2022/08/28 05:17:01;;;;;;;5.55;2.50;;;16.90;86.70;;;;;;6253981;23;20001;-88
2022/08/28 05:19:32;;;;;;;5.07;2.47;;;16.90;86.80;;;;;;6228100;23;20441;-87
2022/08/28 05:21:58;;;;;;;6.13;2.50;;;16.90;86.80;;;;;;6254183;23;20139;-86
2022/08/28 05:24:27;;;;;;;6.43;2.70;;;17.00;86.80;;;;;;6225408;23;20469;-86
2022/08/28 05:26:53;;;;;;;6.68;2.30;;;17.00;86.70;;;;;;6229729;23;20008;-87
2022/08/28 05:29:19;;;;;;;5.78;2.17;;;17.00;86.70;;;;;;6203957;23;20004;-86
2022/08/28 05:31:44;;;;;;;5.13;2.42;;;17.00;86.90;;;;;;6228577;23;20106;-87
2022/08/28 05:34:14;;;;;;;5.32;2.45;;;17.00;87.10;;;;;;6204515;23;20008;-88
2022/08/28 05:36:41;;;;;;;6.07;2.47;;;17.00;87.20;;;;;;6204696;23;20533;-87
2022/08/28 05:39:10;;;;;;;5.10;2.40;;;17.00;87.10;;;;;;6254609;23;19984;-88
2022/08/28 05:41:38;;;;;;;9.05;2.63;;;17.10;87.30;;;;;;6254298;23;20015;-88
2022/08/28 05:44:08;;;;;;;7.03;2.75;;;17.00;87.20;;;;;;6254686;23;20007;-86
2022/08/28 05:46:39;;;;;;;7.30;2.60;;;17.10;87.10;;;;;;6254383;23;20012;-86
2022/08/28 05:49:12;;;;;;;4.78;2.20;;;17.10;87.10;;;;;;6253951;23;20345;-85
2022/08/28 05:51:40;;;;;;;5.13;2.30;;;17.20;87.20;;;;;;6254049;23;20050;-87
2022/08/28 05:54:06;;;;;;;4.72;2.28;;;17.30;87.10;;;;;;6234708;22;20043;-87
2022/08/28 05:56:37;;;;;;;5.18;2.72;;;17.30;86.90;;;;;;6248916;22;20000;-86
2022/08/28 05:59:04;;;;;;;;;;;17.30;86.90;;;;;;6275360;22;20031;-86
2022/08/28 06:01:35;;;;;;;7.40;2.50;;;17.30;86.90;;;;;;6249206;22;19888;-89
2022/08/28 06:04:06;;;;;;;6.80;2.35;;;17.30;87.00;;;;;;6250614;22;20007;-88
2022/08/28 06:06:34;;;;;;;4.20;2.17;;;17.40;87.10;;;;;;6260471;23;19996;-86
2022/08/28 06:09:06;;;;;;;6.05;2.67;;;17.40;87.00;;;;;;6253563;23;19988;-86
2022/08/28 06:11:33;;;;;;;5.20;2.35;;;17.30;87.10;;;;;;6254827;23;19997;-87
2022/08/28 06:14:00;;;;;;;6.07;2.55;;;17.30;87.10;;;;;;6254517;23;20060;-89
2022/08/28 06:16:30;;;;;;;4.88;2.10;;;17.40;87.00;;;;;;6253564;23;20000;-86
2022/08/28 06:18:57;;;;;;;7.30;2.40;;;17.40;87.00;;;;;;6204258;23;20043;-87
2022/08/28 06:21:25;;;;;;;4.85;2.30;;;17.40;87.00;;;;;;6254514;23;20008;-87
2022/08/28 06:24:12;;;;;;;7.05;2.20;;;17.50;87.00;;;;;;6229013;23;20338;-87
2022/08/28 06:26:41;;;;;;;5.45;2.35;;;17.50;87.00;;;;;;6226555;23;20020;-86
2022/08/28 06:29:24;;;;;;;6.00;2.58;;;17.60;86.90;;;;;;6253534;23;20020;-87
2022/08/28 06:32:08;;;;;;;8.65;2.75;;;17.60;86.80;;;;;;6205583;23;20086;-87
2022/08/28 06:34:39;;;;;;;4.78;2.10;;;17.50;86.80;;;;;;6253348;23;20027;-87
2022/08/28 06:37:05;;;;;;;;;;;17.50;87.00;;;;;;6253429;23;20000;-88
2022/08/28 06:39:43;;;;;;;4.40;1.85;;;17.60;87.00;;;;;;6227522;23;19903;-87
2022/08/28 06:42:09;;;;;;;4.70;2.28;;;17.60;86.80;;;;;;6203403;23;20008;-86
2022/08/28 06:44:45;;;;;;;7.10;2.42;;;17.70;86.60;;;;;;6253189;23;20011;-86
2022/08/28 06:47:13;;;;;;;5.15;2.38;;;17.70;86.50;;;;;;6254156;23;20004;-88
2022/08/28 06:49:54;;;;;;;6.28;1.98;;;17.70;86.30;;;;;;6227830;23;20015;-87
2022/08/28 06:52:24;;;;;;;6.57;2.28;;;17.70;86.30;;;;;;6249876;23;20008;-87
2022/08/28 06:55:11;;;;;;;5.07;1.83;;;17.80;86.90;;;;;;6228035;23;20019;-86
2022/08/28 06:58:09;;;;;;;5.90;2.40;;;17.80;86.20;;;;;;6246936;23;20314;-86
2022/08/28 07:00:35;;;;;;;5.70;2.33;;;17.90;86.10;;;;;;6216017;23;20008;-87
2022/08/28 07:03:31;;;;;;;5.10;2.22;;;17.90;85.80;;;;;;6251108;23;20055;-88
2022/08/28 07:06:01;;;;;;;6.82;1.75;;;17.90;85.70;;;;;;6243103;23;20011;-89
2022/08/28 07:08:30;;;;;;;4.93;2.03;;;18.00;85.60;;;;;;6254792;23;20011;-90
2022/08/28 07:11:09;;;;;;;5.38;2.50;;;18.00;85.50;;;;;;6254923;23;20331;-90
2022/08/28 07:13:37;;;;;;;6.57;2.03;;;18.10;85.50;;;;;;6229402;23;20008;-89
2022/08/28 07:16:11;;;;;;;4.68;1.85;;;18.20;85.30;;;;;;6204516;23;20039;-90
2022/08/28 07:18:40;;;;;;;6.97;1.95;;;18.20;85.20;;;;;;6229782;23;20036;-88
2022/08/28 07:21:26;;;;;;;6.47;2.20;;;18.30;84.80;;;;;;6255268;23;20011;-89
2022/08/28 07:23:52;;;;;;;7.40;2.30;;;18.30;84.40;;;;;;6254383;23;20281;-88
2022/08/28 07:26:22;;;;;;;5.95;2.03;;;18.40;84.00;;;;;;6248547;23;20013;-88
2022/08/28 07:28:53;;;;;;;3.92;1.90;;;18.40;84.10;;;;;;6253972;23;20035;-89
2022/08/28 07:31:21;;;;;;;;;;;18.40;84.00;;;;;;6254034;23;20083;-89
2022/08/28 07:33:50;;;;;;;4.28;1.85;;;18.50;84.00;;;;;;6229593;23;19906;-90
2022/08/28 07:36:43;;;;;;;7.93;2.03;;;18.50;83.80;;;;;;6249750;23;20345;-88
2022/08/28 07:39:24;;;;;;;4.88;2.15;;;18.60;83.60;;;;;;6231203;23;20012;-91
2022/08/28 07:41:50;;;;;;;5.43;1.80;;;18.70;83.60;;;;;;6255863;23;20019;-87
2022/08/28 07:47:10;;;;;;;3.55;1.80;;;18.80;83.10;;;;;;6265838;23;20015;-89
2022/08/28 07:49:43;;;;;;;3.58;1.70;;;18.80;83.10;;;;;;6272525;22;19984;-87
2022/08/28 07:52:21;;;;;;;;;;;;;;;;;;;;;
2022/08/28 07:54:53;;;;;;;4.63;1.90;;;18.90;83.30;;;;;;6272802;22;19984;-89
2022/08/28 07:57:20;;;;;;;4.45;1.70;;;18.90;82.40;;;;;;6296726;22;20001;-88
2022/08/28 07:59:47;;;;;;;6.45;1.77;;;18.90;81.70;;;;;;6263321;22;20444;-88
2022/08/28 08:02:18;;;;;;;3.92;2.15;;;19.00;81.40;;;;;;6253706;23;20000;-89
2022/08/28 08:04:46;;;;;;;4.80;2.20;;;19.10;81.20;;;;;;6253840;23;20015;-89
2022/08/28 08:07:16;;;;;;;5.47;1.75;;;19.10;80.40;;;;;;6203672;23;20000;-89
2022/08/28 08:09:43;;;;;;;4.78;1.40;;;19.20;80.10;;;;;;6254545;23;20004;-87
2022/08/28 08:12:15;;;;;;;4.65;1.60;;;19.20;79.30;;;;;;6278285;22;20062;-87
2022/08/28 08:14:44;;;;;;;3.13;1.50;;;19.30;79.40;;;;;;6227229;23;20000;-89
2022/08/28 08:17:14;;;;;;;4.28;1.60;;;19.30;78.80;;;;;;6279311;22;20001;-90
2022/08/28 08:19:39;;;;;;;6.70;1.58;;;19.30;78.50;;;;;;6253571;23;20091;-89
2022/08/28 08:22:06;;;;;;;4.38;1.52;;;19.30;78.40;;;;;;6251786;23;20015;-89
2022/08/28 08:24:37;;;;;;;3.40;1.70;;;19.30;77.90;;;;;;6228031;23;20012;-88
2022/08/28 08:27:09;;;;;;;3.92;1.63;;;19.40;78.00;;;;;;6253833;23;20027;-88
2022/08/28 08:29:37;;;;;;;3.72;1.60;;;19.40;77.90;;;;;;6254410;23;20004;-89
2022/08/28 08:32:09;;;;;;;4.18;1.60;;;19.50;77.40;;;;;;6253347;23;20456;-88
2022/08/28 08:34:38;;;;;;;3.10;1.38;;;19.60;77.40;;;;;;6253757;22;20028;-87
2022/08/28 08:37:11;;;;;;;4.15;1.40;;;19.60;76.90;;;;;;6254146;23;20058;-89
2022/08/28 08:39:52;;;;;;;;;;;;;;;;;;;;;
2022/08/28 08:42:18;;;;;;;3.85;1.80;;;19.70;76.00;;;;;;6254745;23;20020;-90
2022/08/28 08:44:57;;;;;;;4.60;1.60;;;19.70;76.40;;;;;;6279198;22;20000;-89
2022/08/28 08:47:40;;;;;;;3.90;1.45;;;19.80;76.30;;;;;;6254066;23;20011;-89
2022/08/28 08:50:16;;;;;;;4.88;1.58;;;19.90;76.40;;;;;;6228508;23;20004;-88
2022/08/28 08:53:16;;;;;;;4.45;1.50;;;19.90;75.90;;;;;;6253832;23;20000;-88
2022/08/28 08:55:58;;;;;;;4.68;1.50;;;20.00;75.90;;;;;;6257638;22;20011;-86
2022/08/28 08:58:39;;;;;;;5.95;1.83;;;20.10;74.40;;;;;;6245438;23;20004;-84
2022/08/28 09:01:28;;;;;;;5.57;1.42;;;20.10;74.10;;;;;;6252194;23;20334;-84
2022/08/28 09:04:06;;;;;;;3.90;1.60;;;20.20;73.90;;;;;;6254366;23;20036;-85
2022/08/28 09:06:53;;;;;;;3.72;1.40;;;20.20;74.30;;;;;;6253289;23;20006;-85
2022/08/28 09:09:40;;;;;;;4.72;1.50;;;20.30;74.10;;;;;;6253335;23;20003;-85
2022/08/28 09:12:11;;;;;;;4.03;1.55;;;20.30;73.80;;;;;;6252219;23;20008;-83
2022/08/28 09:14:46;;;;;;;;;;;20.30;72.90;;;;;;6255412;23;20043;-84
2022/08/28 09:17:21;;;;;;;5.25;1.67;;;20.30;73.10;;;;;;6252643;23;19900;-83
2022/08/28 09:19:49;;;;;;;4.03;1.40;;;20.30;73.50;;;;;;6251897;23;20007;-82
2022/08/28 09:22:15;;;;;;;3.80;1.80;;;20.30;73.60;;;;;;6252566;23;20330;-84
2022/08/28 09:24:41;;;;;;;3.75;1.50;;;20.30;73.70;;;;;;6252831;23;20000;-83
2022/08/28 09:27:37;;;;;;;3.35;1.15;;;20.40;73.60;;;;;;6277108;22;20012;-83
2022/08/28 09:30:10;;;;;;;4.72;1.70;;;20.50;73.90;;;;;;6253382;23;20035;-84
2022/08/28 09:32:56;;;;;;;5.45;1.52;;;20.60;73.50;;;;;;6253459;23;20083;-85
2022/08/28 09:35:36;;;;;;;2.70;1.20;;;20.70;73.00;;;;;;6228733;23;20000;-83
2022/08/28 09:38:35;;;;;;;3.20;1.33;;;20.80;73.00;;;;;;6227649;23;20016;-85
2022/08/28 09:46:48;;;;;;;4.60;1.67;;;21.10;72.20;;;;;;6275084;22;19999;-85
2022/08/28 09:49:29;;;;;;;3.50;1.80;;;21.10;70.80;;;;;;6274310;22;20011;-83
2022/08/28 09:52:18;;;;;;;4.95;1.55;;;21.10;70.80;;;;;;6246513;22;20015;-83
2022/08/28 09:54:50;;;;;;;3.45;1.60;;;21.10;70.60;;;;;;6272870;23;19988;-85
2022/08/28 09:57:16;;;;;;;3.28;1.58;;;21.20;71.20;;;;;;6211646;23;20011;-82
2022/08/28 09:59:44;;;;;;;3.47;1.52;;;21.20;70.90;;;;;;6253188;22;20012;-86
2022/08/28 10:02:16;;;;;;;3.13;1.50;;;21.30;70.90;;;;;;6226806;23;20024;-83
2022/08/28 10:04:59;;;;;;;4.47;1.50;;;21.30;70.90;;;;;;6254128;23;19996;-85
2022/08/28 10:07:39;;;;;;;2.67;1.35;;;21.30;70.00;;;;;;6253917;23;19996;-83
2022/08/28 10:10:34;;;;;;;4.43;1.13;;;21.30;69.10;;;;;;6253291;23;20015;-83
2022/08/28 10:13:22;;;;;;;2.97;1.38;;;21.30;69.10;;;;;;6225129;23;20020;-84
2022/08/28 10:16:27;;;;;;;3.03;1.33;;;21.40;69.20;;;;;;6225214;23;19996;-84
2022/08/28 10:19:02;;;;;;;3.88;1.38;;;21.40;69.70;;;;;;6250743;23;20016;-83
2022/08/28 10:21:52;;;;;;;2.10;1.30;;;21.50;69.00;;;;;;6226876;23;20367;-83
2022/08/28 10:24:29;;;;;;;5.15;1.52;;;21.60;68.20;;;;;;6227183;23;20064;-85
2022/08/28 10:27:16;;;;;;;2.10;1.30;;;21.70;67.70;;;;;;6250874;23;20012;-84
2022/08/28 10:30:06;;;;;;;2.45;1.15;;;21.70;67.60;;;;;;6277953;22;20000;-86
2022/08/28 10:33:09;;;;;;;2.95;1.45;;;21.80;67.80;;;;;;6251480;23;20004;-83
2022/08/28 10:36:10;;;;;;;4.93;1.65;;;21.80;67.10;;;;;;6251300;23;20000;-86
2022/08/28 10:38:46;;;;;;;;;;;21.90;67.30;;;;;;6251030;23;20091;-83
2022/08/28 10:41:47;;;;;;;3.17;1.33;;;21.90;66.80;;;;;;6250498;23;20252;-86
2022/08/28 10:44:23;;;;;;;;;;;22.10;67.20;;;;;;6275520;22;20451;-84
2022/08/28 10:46:54;;;;;;;2.42;1.10;;;22.20;66.50;;;;;;6251353;23;19900;-84
2022/08/28 10:49:46;;;;;;;;;;;22.20;66.40;;;;;;6252573;23;20004;-83
2022/08/28 10:52:18;;;;;;;3.63;1.40;;;22.30;66.20;;;;;;6251572;23;19900;-83
2022/08/28 10:54:47;;;;;;;2.95;1.13;;;22.40;66.20;;;;;;6225841;23;20079;-85
2022/08/28 10:57:50;;;;;;;4.57;1.50;;;22.40;66.20;;;;;;6251154;23;20004;-85
2022/08/28 11:00:26;;;;;;;2.38;1.10;;;22.50;66.30;;;;;;6277483;22;20333;-82
2022/08/28 11:03:21;;;;;;;3.08;1.20;;;22.50;66.30;;;;;;6254475;23;20047;-87
2022/08/28 11:06:04;;;;;;;2.53;1.20;;;22.60;65.30;;;;;;6239738;23;20024;-87
2022/08/28 11:08:38;;;;;;;4.93;1.30;;;22.60;65.10;;;;;;6273227;22;20008;-87
2022/08/28 11:11:35;;;;;;;3.50;1.40;;;22.60;65.00;;;;;;6279433;22;20010;-86
2022/08/28 11:14:01;;;;;;;4.13;1.20;;;22.60;65.10;;;;;;6254940;22;20006;-88
2022/08/28 11:16:56;;;;;;;2.92;1.17;;;22.50;65.20;;;;;;6252408;23;20322;-88
2022/08/28 11:19:37;;;;;;;3.05;1.70;;;22.50;65.10;;;;;;6250914;22;20015;-87
2022/08/28 11:22:51;;;;;;;;;;;;;;;;;;;;;
2022/08/28 11:29:42;;;;;;;4.40;1.48;;;22.60;65.70;;;;;;6057486;23;20058;-91
2022/08/28 11:33:11;;;;;;;;;;;;;;;;;;;;;
2022/08/28 11:36:28;;;;;;;;;;;;;;;;;;;;;
2022/08/28 11:42:47;;;;;;;2.67;1.20;;;22.70;64.40;;;;;;5993286;24;20502;-93
2022/08/28 11:46:20;;;;;;;2.45;1.27;;;22.80;64.20;;;;;;5970110;24;20321;-90
2022/08/28 11:55:49;;;;;;;2.22;1.40;;;22.80;63.40;;;;;;5947166;24;20013;-92
2022/08/28 11:58:50;;;;;;;3.70;1.13;;;22.80;63.50;;;;;;5949096;24;20025;-92
2022/08/28 12:01:52;;;;;;;3.00;1.10;;;22.90;63.40;;;;;;6052774;23;20038;-91
2022/08/28 12:04:46;;;;;;;2.67;1.30;;;22.90;63.00;;;;;;6074034;23;20035;-91
2022/08/28 12:07:33;;;;;;;3.00;1.15;;;23.00;62.60;;;;;;6064158;23;20007;-91
2022/08/28 12:10:45;;;;;;;;;;;;;;;;;;;;;
2022/08/28 12:17:30;;;;;;;;;;;;;;;;;;;;;
2022/08/28 12:23:54;;;;;;;2.05;1.17;;;23.00;62.10;;;;;;6192298;23;20439;-93
2022/08/28 12:26:48;;;;;;;2.20;1.20;;;22.90;62.50;;;;;;6226080;23;20001;-92
2022/08/28 12:30:18;;;;;;;3.40;1.48;;;22.90;62.50;;;;;;6193034;23;20025;-92
2022/08/28 12:33:39;;;;;;;2.83;1.30;;;23.00;62.20;;;;;;6234178;23;20012;-92
2022/08/28 12:36:27;;;;;;;;;;;;;;;;;;;;;
2022/08/28 12:39:11;;;;;;;;;;;;;;;;;;;;;
2022/08/28 12:45:23;;;;;;;2.70;1.40;;;23.30;62.10;;;;;;6251810;23;20012;-91
2022/08/28 12:48:38;;;;;;;2.97;1.20;;;23.30;61.30;;;;;;6259487;23;20019;-90
2022/08/28 12:54:28;;;;;;;;;;;;;;;;;;;;;
2022/08/28 12:57:24;;;;;;;1.90;1.20;;;23.40;60.50;;;;;;6248636;23;20020;-92
2022/08/28 13:00:32;;;;;;;3.10;1.60;;;23.60;60.00;;;;;;6138117;23;20041;-91
2022/08/28 13:03:58;;;;;;;;;;;;;;;;;;;;;
2022/08/28 13:09:52;;;;;;;2.53;1.30;;;23.40;59.10;;;;;;6134665;23;20046;-94
2022/08/28 13:12:47;;;;;;;3.00;1.17;;;23.40;59.40;;;;;;6231390;23;20427;-91
2022/08/28 13:15:54;;;;;;;1.90;1.20;;;23.40;59.30;;;;;;6244114;23;20444;-93
2022/08/28 13:19:13;;;;;;;2.10;1.08;;;23.30;59.00;;;;;;6257302;23;20418;-91
2022/08/28 13:22:35;;;;;;;2.35;1.10;;;23.40;59.30;;;;;;6208075;23;20008;-90
2022/08/28 13:26:09;;;;;;;;;;;;;;;;;;;;;
2022/08/28 13:29:03;;;;;;;;;;;;;;;;;;;;;
2022/08/28 13:34:55;;;;;;;3.25;1.30;;;23.60;58.90;;;;;;6259339;23;20011;-92
2022/08/28 13:38:10;;;;;;;;;;;;;;;;;;;;;
2022/08/28 13:41:11;;;;;;;2.92;1.30;;;23.50;58.20;;;;;;6258674;23;20040;-91
2022/08/28 13:50:26;;;;;;;1.92;1.20;;;23.30;57.90;;;;;;6233690;23;20012;-90
2022/08/28 13:53:12;;;;;;;;;;;;;;;;;;;;;
2022/08/28 13:56:15;;;;;;;1.52;1.02;;;23.40;57.90;;;;;;6275965;22;20004;-91
2022/08/28 13:59:15;;;;;;;2.78;1.52;;;23.50;57.60;;;;;;6275523;22;19996;-91
2022/08/28 14:04:52;;;;;;;1.63;1.15;;;23.70;57.30;;;;;;6275595;22;20044;-90
2022/08/28 14:07:54;;;;;;;;;;;;;;;;;;;;;
2022/08/28 14:10:41;;;;;;;2.70;1.30;;;23.70;58.10;;;;;;6258037;23;20039;-90
2022/08/28 14:13:24;;;;;;;2.72;1.40;;;23.70;58.30;;;;;;6283783;22;20000;-91
2022/08/28 14:16:16;;;;;;;5.47;1.60;;;23.60;58.60;;;;;;6258188;22;20000;-90
2022/08/28 14:18:47;;;;;;;4.07;1.60;;;23.60;58.80;;;;;;6269611;22;20012;-91
2022/08/28 14:21:39;;;;;;;;;;;23.60;58.90;;;;;;6258126;22;20008;-91
2022/08/28 14:27:23;;;;;;;2.65;1.35;;;23.60;58.80;;;;;;6257766;22;20032;-91
2022/08/28 14:32:52;;;;;;;3.13;1.45;;;23.60;58.00;;;;;;6211170;23;20000;-92
2022/08/28 14:35:31;;;;;;;3.58;1.42;;;23.50;57.50;;;;;;6232693;23;20005;-91
2022/08/28 14:38:16;;;;;;;;;;;;;;;;;;;;;
2022/08/28 14:41:02;;;;;;;2.85;1.40;;;23.40;57.20;;;;;;6258083;23;20023;-90
2022/08/28 14:44:42;;;;;;;5.38;1.90;;;23.50;57.50;;;;;;6261422;22;20008;-90
2022/08/28 14:47:59;;;;;;;;;;;;;;;;;;;;;
2022/08/28 14:51:04;;;;;;;;;;;;;;;;;;;;;
2022/08/28 14:54:19;;;;;;;;;;;;;;;;;;;;;
2022/08/28 14:57:38;;;;;;;;;;;;;;;;;;;;;
2022/08/28 15:03:49;;;;;;;3.58;1.52;;;23.40;57.70;;;;;;6134455;23;20046;-91
2022/08/28 15:07:12;;;;;;;;;;;;;;;;;;;;;
2022/08/28 15:17:22;;;;;;;;;;;;;;;;;;;;;
2022/08/28 15:24:37;;;;;;;;;;;;;;;;;;;;;
2022/08/28 15:38:09;;;;;;;2.72;1.83;;;23.70;56.30;;;;;;6035346;23;20007;-93
2022/08/28 15:41:38;;;;;;;;;;;;;;;;;;;;;
2022/08/28 15:51:09;;;;;;;4.95;2.95;;;23.50;56.40;;;;;;6152858;23;20005;-89
2022/08/28 15:54:23;;;;;;;;;;;;;;;;;;;;;